Peyton, CO

7:47 PM MST on January 19, 2017 (GMT -0700)
Meadow Lake

Weather History for KFLY - October, 2011

Change the Weather History Date:

Wednesday, October 26, 2011

  Actual Average (KCOS) Record (KCOS)
Temperature  
Mean Temperature 28 °F -  
Max Temperature 32 °F 61 °F 80 °F (1979)
Min Temperature 23 °F 33 °F 16 °F (1913)
Degree Days  
Heating Degree Days 38    
Moisture  
Dew Point 25 °F    
Average Humidity 89    
Maximum Humidity 94    
Minimum Humidity 82    
Precipitation  
Precipitation 0.00 in - - ()
Sea Level Pressure  
Sea Level Pressure 30.15 in    
Wind  
Wind Speed 12 mph (NNE)    
Max Wind Speed 18 mph    
Max Gust Speed 23 mph    
Visibility 4 miles    
Events Snow    
Averages and records for this station are not official NWS values.
T = Trace of Precipitation, MM = Missing Value Source: NWS Daily Summary

Daily Weather History Graph

Daily Weather History Graph

Search for Another Location

Airport or City:

Trip Planner

Search our weather history database for the weather conditions in past years. The results will help you decide how hot, cold, wet, or windy it might be!

Date:

Astronomy

Oct. 26, 2011 Rise Set
Actual Time 7:18 AM MDT 6:05 PM MDT
Civil Twilight 6:51 AM MDT 6:32 PM MDT
Nautical Twilight 6:20 AM MDT 7:03 PM MDT
Astronomical Twilight 5:49 AM MDT 7:34 PM MDT
Moon 7:09 AM MDT (10/26) 5:49 PM MDT (10/26)
Length of Visible Light 11h 40m
Length of Day
10h 46m
Waning Crescent, 0% of the Moon is Illuminated
Oct 26
Waning Crescent
Oct 26
New
Nov 2
First Quarter
Nov 10
Full
Nov 18
Last Quarter

Hourly Weather History & Observations

Time (MDT) Temp. Windchill Dew Point Humidity Pressure Visibility Wind Dir Wind Speed Gust Speed Precip Events Conditions
12:04 AM 32.0 °F 21.6 °F 30.4 °F 94% 30.15 in 1.8 mi North 15.0 mph 20.7 mph N/A Snow Light Snow
12:24 AM 31.1 °F 20.9 °F 29.7 °F 94% 30.16 in 1.2 mi North 13.8 mph - N/A Snow Light Snow
12:44 AM 30.7 °F 20.4 °F 28.8 °F 92% 30.16 in 2.5 mi North 13.8 mph 19.6 mph N/A Snow Light Snow
1:04 AM 30.2 °F 20.2 °F 28.2 °F 92% 30.16 in 2.0 mi North 12.7 mph 19.6 mph N/A Snow Light Snow
1:24 AM 29.8 °F 19.3 °F 28.2 °F 94% 30.15 in 1.2 mi North 13.8 mph 20.7 mph N/A Snow Light Snow
1:44 AM 29.7 °F 19.1 °F 28.0 °F 94% 30.14 in 1.8 mi North 13.8 mph 18.4 mph N/A Snow Light Snow
2:04 AM 29.7 °F 19.1 °F 28.0 °F 94% 30.14 in 3.0 mi North 13.8 mph 18.4 mph N/A Snow Light Snow
2:24 AM 29.8 °F 20.9 °F 27.3 °F 90% 30.14 in 10.0 mi North 10.4 mph - N/A   Overcast
2:44 AM 29.7 °F 19.6 °F 26.6 °F 88% 30.15 in 10.0 mi North 12.7 mph 18.4 mph N/A   Overcast
3:04 AM 29.5 °F 18.8 °F 26.4 °F 88% 30.14 in 10.0 mi North 13.8 mph - N/A   Overcast
3:24 AM 29.1 °F 17.9 °F 27.0 °F 92% 30.14 in 4.0 mi North 15.0 mph - N/A Snow Light Snow
3:44 AM 28.9 °F 18.6 °F 26.6 °F 91% 30.16 in 3.0 mi North 12.7 mph 18.4 mph N/A Snow Light Snow
4:04 AM 28.9 °F 16.5 °F 26.4 °F 90% 30.16 in 5.0 mi North 18.4 mph 23.0 mph N/A Snow Light Snow
4:24 AM 28.9 °F 18.6 °F 26.2 °F 90% 30.14 in 4.0 mi North 12.7 mph 20.7 mph N/A Snow Light Snow
4:44 AM 28.8 °F 17.9 °F 26.1 °F 90% 30.14 in 5.0 mi North 13.8 mph 21.9 mph N/A Snow Light Snow
5:04 AM 28.4 °F 17.5 °F 25.7 °F 90% 30.14 in 7.0 mi NNE 13.8 mph 18.4 mph N/A   Overcast
5:24 AM 28.0 °F 18.6 °F 25.2 °F 89% 30.15 in 10.0 mi North 10.4 mph - N/A Snow Light Snow
5:44 AM 27.7 °F 17.1 °F 24.8 °F 89% 30.13 in 10.0 mi North 12.7 mph - N/A Snow Light Snow
6:04 AM 27.7 °F 18.2 °F 25.0 °F 90% 30.14 in 10.0 mi North 10.4 mph - N/A   Overcast
6:24 AM 27.5 °F 18.0 °F 24.8 °F 90% 30.14 in 7.0 mi NNE 10.4 mph - N/A   Overcast
6:44 AM 27.3 °F 18.4 °F 24.6 °F 90% 30.15 in 10.0 mi NNE 9.2 mph - N/A   Overcast
7:04 AM 27.3 °F 17.1 °F 25.2 °F 92% 30.14 in 2.0 mi North 11.5 mph - N/A Snow Light Snow
7:24 AM 27.1 °F 17.5 °F 25.3 °F 93% 30.14 in 1.5 mi NNE 10.4 mph - N/A Snow Light Snow
7:44 AM 27.1 °F 17.5 °F 25.3 °F 93% 30.15 in 3.0 mi NNE 10.4 mph - N/A Snow Light Snow
8:04 AM 27.1 °F 16.9 °F 25.2 °F 92% 30.16 in 1.2 mi NNE 11.5 mph - N/A Snow Light Snow
8:24 AM 27.3 °F 18.4 °F 25.3 °F 92% 30.16 in 1.2 mi NNE 9.2 mph - N/A Snow Light Snow
8:44 AM 27.5 °F 20.2 °F 25.7 °F 93% 30.16 in 0.8 mi NNE 6.9 mph - N/A Snow Light Snow
9:04 AM 28.2 °F 20.2 °F 25.7 °F 90% 30.17 in 0.8 mi North 8.1 mph - N/A Snow Light Snow
9:24 AM 28.4 °F 19.7 °F 25.5 °F 89% 30.17 in 1.5 mi North 9.2 mph - N/A Snow Light Snow
9:44 AM 29.3 °F 19.6 °F 25.3 °F 85% 30.19 in 2.5 mi North 11.5 mph - N/A Snow Light Snow
10:04 AM 29.5 °F 21.1 °F 25.5 °F 85% 30.18 in 2.5 mi North 9.2 mph - N/A Snow Light Snow
10:24 AM 30.2 °F 20.8 °F 25.2 °F 82% 30.18 in 4.0 mi North 11.5 mph - N/A Snow Light Snow
10:44 AM 30.2 °F 21.3 °F 25.3 °F 82% 30.17 in 3.0 mi North 10.4 mph - N/A Snow Light Snow
11:04 AM 30.6 °F 21.2 °F 25.7 °F 82% 30.16 in 3.0 mi North 11.5 mph - N/A Snow Light Snow
11:24 AM 30.0 °F 21.7 °F 25.7 °F 84% 30.17 in 1.8 mi NNE 9.2 mph - N/A Snow Light Snow
11:44 AM 29.5 °F 19.3 °F 25.7 °F 86% 30.16 in 2.5 mi NNE 12.7 mph - N/A Snow Light Snow
12:04 PM 30.0 °F 20.5 °F 25.5 °F 83% 30.16 in 5.0 mi NNE 11.5 mph - N/A Snow Light Snow
12:23 PM 29.5 °F 19.9 °F 25.2 °F 84% 30.16 in 2.5 mi NNE 11.5 mph - N/A Snow Light Snow
12:44 PM 28.9 °F 19.8 °F 25.3 °F 86% 30.15 in 2.5 mi NE 10.4 mph - N/A Snow Light Snow
1:04 PM 27.3 °F 16.1 °F 23.9 °F 87% 30.14 in 1.5 mi NE 13.8 mph - N/A Snow Light Snow
1:24 PM 26.8 °F 15.9 °F 23.9 °F 89% 30.14 in 1.2 mi NNE 12.7 mph 17.3 mph N/A Snow Light Snow
1:43 PM 26.4 °F 15.5 °F 23.5 °F 89% 30.14 in 0.8 mi NNE 12.7 mph - N/A Snow Light Snow
2:04 PM 25.7 °F 14.0 °F 23.4 °F 91% 30.14 in 0.8 mi NNE 13.8 mph - N/A Snow Light Snow
2:23 PM 25.5 °F 14.3 °F 22.8 °F 89% 30.14 in 0.2 mi NNE 12.7 mph 17.3 mph N/A Snow Snow
2:44 PM 25.5 °F 14.9 °F 23.0 °F 90% 30.14 in 0.2 mi North 11.5 mph - N/A Snow Snow
3:04 PM 26.6 °F 16.8 °F 23.5 °F 88% 30.14 in 0.5 mi NNE 10.4 mph - N/A Snow Snow
3:24 PM 25.9 °F 15.3 °F 22.6 °F 88% 30.14 in 0.8 mi NNE 11.5 mph - N/A Snow Light Snow
3:43 PM 26.1 °F 17.6 °F 22.8 °F 88% 30.16 in 1.5 mi NNE 8.1 mph - N/A Snow Light Snow
4:04 PM 25.7 °F 16.4 °F 22.6 °F 88% 30.15 in 1.0 mi NNE 9.2 mph - N/A Snow Light Snow
4:24 PM 26.2 °F 16.4 °F 22.5 °F 86% 30.14 in 2.0 mi North 10.4 mph - N/A Snow Light Snow
4:44 PM 25.3 °F 17.6 °F 21.6 °F 86% 30.14 in 5.0 mi NNE 6.9 mph - N/A   Overcast
5:24 PM 24.8 °F 16.1 °F 20.1 °F 82% 30.14 in 10.0 mi North 8.1 mph - N/A   Mostly Cloudy
5:44 PM 24.3 °F 13.3 °F 20.7 °F 86% 30.14 in 10.0 mi North 11.5 mph 16.1 mph N/A   Mostly Cloudy
6:04 PM 23.9 °F 13.5 °F 20.1 °F 85% 30.16 in 10.0 mi North 10.4 mph - N/A   Overcast
6:24 PM 23.7 °F 14.7 °F 20.8 °F 89% 30.16 in 10.0 mi North 8.1 mph - N/A   Overcast
6:44 PM 23.4 °F 13.5 °F 20.1 °F 87% 30.16 in 10.0 mi North 9.2 mph - N/A   Overcast
7:04 PM 23.0 °F 14.7 °F 20.1 °F 89% 30.16 in 10.0 mi North 6.9 mph - N/A   Mostly Cloudy
7:24 PM 21.7 °F 10.8 °F 19.4 °F 91% 30.16 in 10.0 mi North 10.4 mph - N/A   Scattered Clouds
7:44 PM 21.2 °F 9.5 °F 19.0 °F 91% 30.17 in 10.0 mi North 11.5 mph - N/A   Clear
8:04 PM 20.7 °F 8.8 °F 18.5 °F 91% 30.18 in 10.0 mi North 11.5 mph - N/A   Clear
8:24 PM 20.3 °F 10.6 °F 18.3 °F 92% 30.19 in 10.0 mi North 8.1 mph - N/A   Clear
8:44 PM 21.2 °F 11.7 °F 18.9 °F 91% 30.19 in 10.0 mi North 8.1 mph - N/A   Scattered Clouds
9:04 PM 20.7 °F 10.2 °F 18.1 °F 90% 30.19 in 10.0 mi North 9.2 mph - N/A   Scattered Clouds
9:44 PM 20.3 °F 9.8 °F 18.0 °F 91% 30.19 in 10.0 mi North 9.2 mph - N/A   Clear
10:04 PM 20.1 °F 10.3 °F 18.0 °F 91% 30.19 in 10.0 mi North 8.1 mph - N/A   Clear
10:24 PM 19.8 °F 10.8 °F 17.4 °F 91% 30.18 in 10.0 mi North 6.9 mph - N/A   Clear
10:44 PM 19.8 °F - 16.9 °F 89% 30.18 in 10.0 mi Calm Calm - N/A   Clear
11:04 PM 19.0 °F 13.9 °F 17.2 °F 93% 30.18 in 10.0 mi West 3.5 mph - N/A   Scattered Clouds
11:23 PM 19.6 °F 13.0 °F 16.9 °F 89% 30.17 in 10.0 mi WSW 4.6 mph - N/A   Mostly Cloudy
11:44 PM 18.9 °F 10.8 °F 16.7 °F 91% 30.17 in 10.0 mi WSW 5.8 mph - N/A   Overcast